KSTL

St Louis Lambert International Airport

St Louis, Missouri, USA
METAR KSTL 141151Z 01010KT 3/4SM R30R/P6000FT -DZ BR OVC002 07/07 A3005 RMK AO2 SFC VIS 4 SLP180 P0000 60006 70056 T00720072 10089 20072 53006 $
Observed Flight Rules
Dec-14 @ 11:51 UTC (29 minutes ago) Instrument Flight Rules
Wind Visibility Clouds Conditions
10° at 10 knots 3/4 miles
  • Overcast at 200' AGL
  • Light Drizzle
  • Mist
Temperatures Readings Precipitation
Current 7°C / 45°F
Dewpoint 7°C / 45°F
Humidity 100%
Altimeter 30.05" Hg
Pressure 1018 hPa
Elevation 171
Current Rain 0.005
METAR KSTL 141151Z 01010KT 3/4SM R30R/P6000FT -DZ BR OVC002 07/07 A3005 RMK AO2 SFC VIS 4 SLP180 P0000 60006 70056 T00720072 10089 20072 53006 $
Observed Flight Rules
Dec-14 @ 11:51 UTC
(29 minutes ago)
LIFR
Wind Visibility
10° at 10 knots 3/4 miles
Clouds
  • Overcast at 200' AGL
Conditions
  • Light Drizzle
  • Mist
Temperature Dewpoint
7°C / 45°F 7°C / 45°F
Humidity Altimeter Pressure
100% 30.05" Hg 1018 hPa
Current Rain
0.005